createdAt,value
2023-01-27T00:03:26.962Z,41.97
2023-01-27T00:08:32.070Z,46.70
2023-01-27T00:13:37.271Z,53.63
2023-01-27T00:18:45.076Z,48.17
2023-01-27T00:24:02.437Z,53.63
2023-01-27T00:29:07.555Z,45.83
2023-01-27T00:34:15.137Z,38.00
2023-01-27T00:39:20.476Z,54.93
2023-01-27T00:44:25.448Z,46.80
2023-01-27T00:49:33.382Z,59.60
2023-01-27T00:54:39.153Z,56.37
2023-01-27T00:59:44.202Z,52.47
2023-01-27T01:04:55.016Z,48.97
2023-01-27T01:10:00.227Z,38.43
2023-01-27T01:15:05.265Z,41.90
2023-01-27T01:20:14.742Z,44.07
2023-01-27T01:25:19.792Z,44.33
2023-01-27T01:30:26.499Z,40.43
2023-01-27T01:35:34.402Z,36.97
2023-01-27T01:40:43.902Z,46.70
2023-01-27T01:45:55.611Z,41.63
2023-01-27T01:51:09.416Z,40.47
2023-01-27T01:56:19.479Z,68.87
2023-01-27T02:01:24.908Z,62.17
2023-01-27T02:06:36.378Z,40.80
2023-01-27T02:11:41.318Z,42.47
2023-01-27T02:16:47.959Z,46.97
2023-01-27T02:21:58.225Z,45.23
2023-01-27T02:27:06.033Z,37.60
2023-01-27T02:32:11.152Z,34.60
2023-01-27T02:37:16.531Z,34.77
2023-01-27T02:42:24.850Z,29.67
2023-01-27T02:47:30.522Z,29.90
2023-01-27T02:52:36.080Z,29.50
2023-01-27T02:57:43.638Z,38.03
2023-01-27T03:03:21.096Z,33.43
2023-01-27T03:08:26.134Z,27.60
2023-01-27T03:13:33.691Z,28.50
2023-01-27T03:18:39.511Z,27.90
2023-01-27T03:23:46.120Z,31.27
2023-01-27T03:29:15.500Z,25.10
2023-01-27T03:34:22.241Z,25.83
2023-01-27T03:39:45.630Z,27.73
2023-01-27T03:45:05.639Z,27.00
2023-01-27T03:50:19.406Z,22.17
2023-01-27T03:55:25.754Z,23.83
2023-01-27T04:00:33.562Z,27.40
2023-01-27T04:05:50.947Z,24.00
2023-01-27T04:11:08.163Z,24.17
2023-01-27T04:16:18.054Z,26.27
2023-01-27T04:21:23.080Z,24.90
2023-01-27T04:26:33.403Z,30.00
2023-01-27T04:31:44.416Z,27.20
2023-01-27T04:36:50.271Z,25.60
2023-01-27T04:41:55.421Z,24.50
2023-01-27T04:47:03.180Z,28.00
2023-01-27T04:52:08.340Z,22.93
2023-01-27T04:57:14.115Z,31.17
2023-01-27T05:02:21.921Z,24.40
2023-01-27T05:07:26.951Z,27.87
2023-01-27T05:12:31.922Z,23.20
2023-01-27T05:17:41.692Z,21.73
2023-01-27T05:22:46.702Z,21.10
2023-01-27T05:27:51.834Z,28.57
2023-01-27T05:32:59.861Z,23.07
2023-01-27T05:38:07.472Z,22.80
2023-01-27T05:43:12.388Z,29.33
2023-01-27T05:48:20.097Z,22.40
2023-01-27T05:53:29.588Z,24.73
2023-01-27T05:58:37.056Z,24.83
2023-01-27T06:03:45.402Z,28.53
2023-01-27T06:08:53.161Z,25.77
2023-01-27T06:13:59.623Z,28.57
2023-01-27T06:19:11.045Z,33.90
2023-01-27T06:24:18.828Z,34.23
2023-01-27T06:29:27.697Z,22.17
2023-01-27T06:34:35.292Z,24.87
2023-01-27T06:39:50.880Z,26.30
2023-01-27T06:44:56.136Z,26.67
2023-01-27T06:50:04.245Z,25.73
2023-01-27T06:55:10.021Z,30.73
2023-01-27T07:00:16.692Z,27.97
2023-01-27T07:05:24.615Z,28.73
2023-01-27T07:10:33.810Z,32.13
2023-01-27T07:15:46.979Z,28.40
2023-01-27T07:20:54.708Z,28.50
2023-01-27T07:26:00.972Z,26.93
2023-01-27T07:31:06.978Z,25.90
2023-01-27T07:36:16.443Z,32.17
2023-01-27T07:41:24.204Z,29.57
2023-01-27T07:46:29.501Z,25.07
2023-01-27T07:51:39.571Z,28.90
2023-01-27T07:56:45.264Z,30.47
2023-01-27T08:01:53.917Z,24.70
2023-01-27T08:07:03.167Z,24.27
2023-01-27T08:12:08.988Z,18.80
2023-01-27T08:17:14.669Z,19.33
2023-01-27T08:22:24.080Z,19.43
2023-01-27T08:27:29.081Z,21.00
2023-01-27T08:32:38.344Z,23.50
2023-01-27T08:37:48.218Z,20.27
2023-01-27T08:42:55.895Z,20.60
2023-01-27T08:48:01.057Z,16.43
2023-01-27T08:53:08.876Z,18.03
2023-01-27T08:58:15.447Z,19.10
2023-01-27T09:03:21.151Z,19.97
2023-01-27T09:08:30.782Z,27.17
2023-01-27T09:13:41.903Z,29.40
2023-01-27T09:18:52.284Z,30.80
2023-01-27T09:24:03.663Z,31.57
2023-01-27T09:29:12.745Z,39.30
2023-01-27T09:34:19.100Z,35.47
2023-01-27T09:39:27.641Z,33.37
2023-01-27T09:45:11.315Z,30.70
2023-01-27T09:50:36.621Z,28.37
2023-01-27T09:55:50.593Z,30.10
2023-01-27T10:01:18.730Z,29.23
2023-01-27T10:06:46.251Z,29.10
2023-01-27T10:12:08.570Z,26.67
2023-01-27T10:17:31.328Z,26.07
2023-01-27T10:22:49.085Z,28.40
2023-01-27T10:28:10.086Z,25.03
2023-01-27T10:33:21.868Z,25.57
2023-01-27T10:38:41.468Z,24.00
2023-01-27T10:44:01.519Z,24.13
2023-01-27T10:49:23.164Z,26.07
2023-01-27T10:54:36.258Z,31.27
2023-01-27T11:00:17.372Z,29.30
2023-01-27T11:05:24.497Z,24.93
2023-01-27T11:10:39.207Z,24.67
2023-01-27T11:15:58.654Z,24.17
2023-01-27T11:21:08.779Z,26.43
2023-01-27T11:26:29.154Z,30.97
2023-01-27T11:31:46.691Z,28.57
2023-01-27T11:36:54.020Z,28.40
2023-01-27T11:42:01.036Z,23.83
2023-01-27T11:47:16.119Z,25.67
2023-01-27T11:52:27.085Z,22.70
2023-01-27T11:57:33.578Z,22.83
2023-01-27T12:02:47.633Z,27.27
2023-01-27T12:07:58.027Z,24.13
2023-01-27T12:13:11.638Z,28.20
2023-01-27T12:18:23.750Z,28.20
2023-01-27T12:23:35.617Z,26.20
2023-01-27T12:28:45.041Z,27.70
2023-01-27T12:34:03.672Z,29.00
2023-01-27T12:39:09.159Z,26.03
2023-01-27T12:44:22.963Z,28.70
2023-01-27T12:49:36.530Z,27.60
2023-01-27T12:54:41.803Z,28.10
2023-01-27T12:59:55.394Z,24.83
2023-01-27T13:05:08.212Z,23.20
2023-01-27T13:10:23.368Z,26.27
2023-01-27T13:15:32.843Z,21.80
2023-01-27T13:20:47.432Z,24.20
2023-01-27T13:25:57.099Z,20.03
2023-01-27T13:31:09.155Z,17.23
2023-01-27T13:36:30.025Z,17.23
2023-01-27T13:41:46.866Z,17.47
2023-01-27T13:46:56.907Z,21.10
2023-01-27T13:52:08.675Z,19.17
2023-01-27T13:57:50.245Z,13.47
2023-01-27T14:03:34.963Z,16.43
2023-01-27T14:09:09.720Z,18.37
2023-01-27T14:14:29.569Z,18.43
2023-01-27T14:19:49.906Z,13.80
2023-01-27T14:25:04.166Z,12.17
2023-01-27T14:30:27.487Z,13.10
2023-01-27T14:35:39.760Z,12.20
2023-01-27T14:41:06.256Z,14.97
2023-01-27T14:46:23.413Z,10.47
2023-01-27T14:51:38.431Z,12.77
2023-01-27T14:56:53.656Z,11.83
2023-01-27T15:02:08.143Z,11.13
2023-01-27T15:07:19.671Z,9.20
2023-01-27T15:12:43.730Z,9.40
2023-01-27T15:18:01.824Z,14.50
2023-01-27T15:23:40.952Z,12.73
2023-01-27T15:28:52.806Z,9.33
2023-01-27T15:34:17.133Z,11.77
2023-01-27T15:39:35.639Z,9.33
2023-01-27T15:45:02.553Z,9.97
2023-01-27T15:50:22.998Z,10.70
2023-01-27T15:55:30.910Z,10.80
2023-01-27T16:00:42.944Z,10.40
2023-01-27T16:05:53.410Z,7.67
2023-01-27T16:11:26.617Z,9.87
2023-01-27T16:16:40.463Z,11.33
2023-01-27T16:21:50.763Z,9.67
2023-01-27T16:27:07.303Z,11.70
2023-01-27T16:32:21.501Z,18.17
2023-01-27T16:37:31.974Z,16.93
2023-01-27T16:42:43.424Z,18.97
2023-01-27T16:47:55.227Z,17.37
2023-01-27T16:53:02.031Z,19.37
2023-01-27T16:58:07.763Z,23.97
2023-01-27T17:03:23.572Z,21.30
2023-01-27T17:08:45.818Z,23.43
2023-01-27T17:13:54.846Z,23.90
2023-01-27T17:19:09.880Z,23.63
2023-01-27T17:24:19.497Z,24.00
2023-01-27T17:29:27.240Z,26.90
2023-01-27T17:34:36.058Z,23.07
2023-01-27T17:39:46.076Z,26.83
2023-01-27T17:44:52.068Z,28.03
2023-01-27T17:50:03.079Z,29.83
2023-01-27T17:55:09.609Z,30.77
2023-01-27T18:00:27.439Z,30.70
2023-01-27T18:05:36.764Z,31.63
2023-01-27T18:10:46.033Z,32.33
2023-01-27T18:15:52.583Z,30.57
2023-01-27T18:21:19.129Z,36.30
2023-01-27T18:26:29.309Z,34.67
2023-01-27T18:31:40.480Z,39.17
2023-01-27T18:36:56.984Z,39.63
2023-01-27T18:42:06.673Z,35.80
2023-01-27T18:47:31.334Z,36.70
2023-01-27T18:52:41.044Z,39.33
2023-01-27T18:57:46.383Z,38.93
2023-01-27T19:02:56.443Z,39.23
2023-01-27T19:08:05.737Z,48.33
2023-01-27T19:13:14.712Z,40.33
2023-01-27T19:18:26.429Z,43.57
2023-01-27T19:23:35.105Z,44.87
2023-01-27T19:28:41.717Z,38.63
2023-01-27T19:33:47.718Z,47.10
2023-01-27T19:38:58.154Z,46.67
2023-01-27T19:44:05.810Z,45.70
2023-01-27T19:49:18.048Z,51.80
2023-01-27T19:54:26.478Z,43.87
2023-01-27T19:59:32.632Z,47.90
2023-01-27T20:04:39.830Z,46.03
2023-01-27T20:09:48.068Z,47.93
2023-01-27T20:14:54.331Z,52.00
2023-01-27T20:20:02.270Z,52.57
2023-01-27T20:25:15.797Z,52.27
2023-01-27T20:30:24.536Z,53.00
2023-01-27T20:35:33.790Z,51.37
2023-01-27T20:40:41.686Z,48.83
2023-01-27T20:45:47.077Z,44.00
2023-01-27T20:51:01.226Z,41.33
2023-01-27T20:56:21.082Z,39.20
2023-01-27T21:01:27.803Z,37.40
2023-01-27T21:06:33.056Z,40.17
2023-01-27T21:11:43.036Z,37.20
2023-01-27T21:16:51.896Z,34.37
2023-01-27T21:21:58.876Z,36.53
2023-01-27T21:27:06.635Z,32.37
2023-01-27T21:32:16.833Z,38.07
2023-01-27T21:37:21.788Z,36.43
2023-01-27T21:42:41.823Z,36.43
2023-01-27T21:47:46.944Z,37.37
2023-01-27T21:52:53.529Z,40.00
2023-01-27T21:58:01.375Z,42.37
2023-01-27T22:03:10.337Z,41.70
2023-01-27T22:08:15.394Z,40.40
2023-01-27T22:13:24.519Z,39.23
2023-01-27T22:18:30.466Z,36.87
2023-01-27T22:23:35.353Z,40.80
2023-01-27T22:28:43.049Z,38.93
2023-01-27T22:33:48.114Z,34.30
2023-01-27T22:38:53.038Z,33.73
2023-01-27T22:44:00.579Z,33.50
2023-01-27T22:49:05.865Z,33.13
2023-01-27T22:54:12.397Z,32.07
2023-01-27T22:59:19.977Z,33.00
2023-01-27T23:04:24.912Z,35.30
2023-01-27T23:09:31.770Z,30.93
2023-01-27T23:14:39.401Z,29.33
2023-01-27T23:19:44.289Z,26.90
2023-01-27T23:24:49.205Z,23.57
2023-01-27T23:29:56.783Z,22.53
2023-01-27T23:35:01.686Z,17.70
2023-01-27T23:40:10.200Z,11.97
2023-01-27T23:45:18.822Z,11.77
2023-01-27T23:50:24.082Z,11.57
2023-01-27T23:55:29.185Z,10.47
